Hoffman, North Carolina
Current Conditions -  °F | °C
As of 4:13 AM on Thursday 27 Nov 2014 (Local Time) from KHFF Reporting Station
Broken Clouds Broken Clouds  
Wind Chill: 41°   Ceiling: 7000
Heat Index: 41°   Visibility: 10mi
Dew Point: 41°   Wind: 1mph
Humidity: 100%   Direction: NA
Pressure: 30.02"   Gusts: NA
Location:  35.03°N, 79.55°W
Report Text: KHFF 270913Z AUTO VRB01KT 10SM BKN070 05/05 A3002 RMK AO2 PRESFR
Loading
Personal Weather Stations






























Interactive Weather Map New forecast layout! Learn more

10-Day Weather Forecast

Advertisements
Track Severe Weather on mobile